Time;durP1;ratioP1;P1;durP2;ratioP2;P2;SDS_P1;SDS_P2;PMS_P1;PMS_P2;Temp;Humidity;BMP_temperature;BMP_pressure;BME280_temperature;BME280_humidity;BME280_pressure;Samples;Min_cycle;Max_cycle;Signal;HPM_P1;HPM_P2
2022/01/02 00:01:59;;;;;;;4.30;2.95;;;18.00;57.60;17.00;101288.00;;;;5014500;28;20073;-70
2022/01/02 00:04:49;;;;;;;3.60;2.58;;;18.00;57.60;17.00;101291.00;;;;5011729;28;20044;-70
2022/01/02 00:07:42;;;;;;;3.45;2.88;;;18.00;57.60;17.00;101287.00;;;;5014231;28;20047;-69
2022/01/02 00:10:35;;;;;;;3.42;2.63;;;18.00;57.60;17.00;101290.00;;;;4989407;28;20116;-69
2022/01/02 00:13:33;;;;;;;4.50;2.70;;;18.00;57.60;17.00;101286.00;;;;5014874;28;20848;-69
2022/01/02 00:16:19;;;;;;;3.58;2.55;;;18.00;57.50;17.00;101273.00;;;;5014971;28;20048;-70
2022/01/02 00:19:16;;;;;;;2.88;2.40;;;18.00;57.60;17.00;101293.00;;;;5007843;28;20041;-69
2022/01/02 00:22:12;;;;;;;3.47;2.47;;;18.00;57.50;17.00;101275.00;;;;5019298;28;20048;-70
2022/01/02 00:24:58;;;;;;;3.72;3.28;;;18.00;58.20;17.00;101276.00;;;;5013300;28;20324;-70
2022/01/02 00:27:44;;;;;;;3.28;2.35;;;18.00;57.50;17.00;101279.00;;;;4971195;28;20099;-69
2022/01/02 00:30:30;;;;;;;3.53;2.60;;;18.00;57.50;17.00;101265.00;;;;4996250;28;20659;-70
2022/01/02 00:33:19;;;;;;;3.13;2.22;;;18.00;57.50;17.00;101255.00;;;;4991356;28;20045;-69
2022/01/02 00:36:05;;;;;;;4.35;2.60;;;18.00;57.30;17.00;101254.00;;;;4991437;28;20104;-69
2022/01/02 00:38:52;;;;;;;3.42;2.50;;;18.00;57.40;17.00;101246.00;;;;5017326;28;20534;-69
2022/01/02 00:41:52;;;;;;;3.20;2.20;;;18.00;57.40;17.00;101253.00;;;;5015870;28;20551;-70
2022/01/02 00:45:05;;;;;;;3.38;2.22;;;18.00;57.20;17.00;101245.00;;;;5002653;28;20053;-69
2022/01/02 00:48:05;;;;;;;3.03;2.30;;;18.00;57.30;17.00;101255.00;;;;4996206;28;20114;-70
2022/01/02 00:50:56;;;;;;;4.05;2.42;;;18.00;57.20;17.00;101257.00;;;;4988974;28;20037;-70
2022/01/02 00:53:46;;;;;;;4.10;2.17;;;18.00;57.30;17.00;101265.00;;;;5011546;28;20161;-70
2022/01/02 00:56:32;;;;;;;3.22;2.03;;;18.00;57.20;17.00;101267.00;;;;4998393;28;21758;-70
2022/01/02 00:59:34;;;;;;;4.30;2.05;;;18.00;57.20;17.00;101266.00;;;;5015282;28;20128;-69
2022/01/02 01:02:28;;;;;;;3.28;2.33;;;18.00;57.20;17.00;101271.00;;;;4986781;28;20421;-69
2022/01/02 01:05:24;;;;;;;3.28;2.00;;;18.00;57.30;17.00;101260.00;;;;4999700;28;20292;-69
2022/01/02 01:08:10;;;;;;;3.30;2.00;;;18.00;57.20;17.00;101266.00;;;;4997696;28;20033;-70
2022/01/02 01:10:56;;;;;;;3.42;2.40;;;18.00;57.20;17.00;101280.00;;;;5003542;28;20871;-69
2022/01/02 01:13:43;;;;;;;3.97;2.08;;;18.00;57.20;17.00;101276.00;;;;4971308;28;20065;-70
2022/01/02 01:16:29;;;;;;;3.60;2.17;;;18.00;57.10;17.00;101282.00;;;;5016679;28;20542;-69
2022/01/02 01:19:15;;;;;;;3.03;2.05;;;18.00;57.10;17.00;101279.00;;;;5005455;28;20065;-69
2022/01/02 01:22:01;;;;;;;3.03;1.98;;;18.00;57.10;17.00;101268.00;;;;4998420;28;20049;-70
2022/01/02 01:24:47;;;;;;;2.92;2.03;;;18.00;57.10;17.00;101295.00;;;;5016196;28;20036;-69
2022/01/02 01:27:34;;;;;;;3.90;1.98;;;18.00;57.10;17.00;101289.00;;;;5002641;28;22098;-70
2022/01/02 01:30:23;;;;;;;2.15;1.83;;;18.00;56.80;17.00;101293.00;;;;4996344;28;20051;-69
2022/01/02 01:33:09;;;;;;;3.80;2.22;;;18.00;57.00;17.00;101299.00;;;;5006503;28;20471;-69
2022/01/02 01:35:56;;;;;;;4.95;1.95;;;18.00;56.90;16.90;101280.00;;;;4994630;28;20128;-69
2022/01/02 01:38:42;;;;;;;2.97;1.80;;;18.00;57.00;17.00;101283.00;;;;5015203;28;20037;-69
2022/01/02 01:41:35;;;;;;;3.45;1.90;;;18.00;56.90;17.00;101270.00;;;;5016907;28;20072;-70
2022/01/02 01:44:27;;;;;;;4.10;1.80;;;18.00;56.90;17.00;101289.00;;;;5017605;28;20553;-69
2022/01/02 01:47:13;;;;;;;2.72;1.73;;;18.00;57.00;17.00;101286.00;;;;5007309;28;20072;-69
2022/01/02 01:49:59;;;;;;;2.60;1.63;;;18.00;56.80;17.00;101302.00;;;;5015067;28;20519;-69
2022/01/02 01:52:45;;;;;;;4.35;2.20;;;18.00;56.90;17.00;101297.00;;;;4999707;28;20049;-69
2022/01/02 01:55:33;;;;;;;2.90;1.63;;;18.00;56.90;17.00;101285.00;;;;5019196;28;20110;-69
2022/01/02 01:58:19;;;;;;;4.57;2.33;;;18.00;56.60;17.00;101286.00;;;;5012714;28;20056;-69
2022/01/02 02:01:05;;;;;;;4.07;2.33;;;18.00;56.80;16.90;101271.00;;;;5001030;28;20037;-69
2022/01/02 02:03:52;;;;;;;1.90;1.50;;;18.00;56.80;17.00;101260.00;;;;5002176;28;21833;-69
2022/01/02 02:06:38;;;;;;;2.05;1.50;;;18.00;56.60;16.90;101260.00;;;;4985123;28;20075;-70
2022/01/02 02:09:30;;;;;;;2.90;1.80;;;18.00;56.80;17.00;101266.00;;;;4999222;28;20480;-69
2022/01/02 02:12:17;;;;;;;2.63;1.55;;;18.00;56.70;17.00;101270.00;;;;5006238;28;20636;-69
2022/01/02 02:15:04;;;;;;;2.67;1.50;;;18.00;56.80;16.90;101259.00;;;;4984775;28;20502;-69
2022/01/02 02:17:51;;;;;;;3.60;2.13;;;18.00;56.80;16.90;101247.00;;;;5000063;28;20045;-69
2022/01/02 02:20:37;;;;;;;2.22;1.65;;;18.00;56.60;16.90;101257.00;;;;5010807;28;20057;-69
2022/01/02 02:23:23;;;;;;;3.42;2.15;;;18.00;56.80;16.90;101241.00;;;;5003506;28;20148;-69
2022/01/02 02:26:10;;;;;;;3.95;2.10;;;18.00;56.80;17.00;101242.00;;;;5007314;28;20072;-70
2022/01/02 02:28:56;;;;;;;3.53;1.60;;;17.90;56.70;16.90;101237.00;;;;5023456;28;20226;-70
2022/01/02 02:31:42;;;;;;;4.60;1.80;;;18.00;56.90;16.90;101237.00;;;;5017065;28;20037;-69
2022/01/02 02:34:28;;;;;;;4.32;2.03;;;17.90;56.80;16.90;101234.00;;;;5003835;28;20535;-70
2022/01/02 02:37:14;;;;;;;2.75;1.48;;;17.90;56.90;16.90;101227.00;;;;5005058;28;20422;-69
2022/01/02 02:40:01;;;;;;;3.60;1.92;;;17.90;56.80;16.90;101225.00;;;;5026339;28;20041;-69
2022/01/02 02:42:52;;;;;;;3.03;1.73;;;18.00;56.90;16.90;101223.00;;;;5018740;28;20394;-69
2022/01/02 02:49:01;;;;;;;5.30;1.80;;;17.90;56.80;16.90;101212.00;;;;5020238;28;20063;-70
2022/01/02 02:52:12;;;;;;;7.00;2.13;;;17.90;56.90;16.90;101206.00;;;;5020794;28;20376;-70
2022/01/02 02:54:56;;;;;;;;;;;17.90;56.80;16.90;101190.00;;;;5009064;28;20119;-69
2022/01/02 02:57:42;;;;;;;3.65;1.98;;;17.90;57.10;16.90;101181.00;;;;5020827;28;19919;-69
2022/01/02 03:00:28;;;;;;;5.22;2.25;;;17.90;56.90;16.90;101184.00;;;;5020377;28;20033;-69
2022/01/02 03:03:14;;;;;;;5.38;1.90;;;17.90;56.90;16.90;101187.00;;;;5022859;28;20045;-69
2022/01/02 03:06:01;;;;;;;4.07;2.00;;;18.00;57.00;16.90;101187.00;;;;5024758;28;20507;-69
2022/01/02 03:08:48;;;;;;;4.75;1.88;;;18.00;57.00;16.90;101178.00;;;;5020066;28;20032;-70
2022/01/02 03:11:36;;;;;;;4.00;1.63;;;17.90;57.10;16.90;101170.00;;;;5019347;28;20095;-69
2022/01/02 03:14:22;;;;;;;;;;;17.90;57.10;16.90;101163.00;;;;5016738;28;20033;-69
2022/01/02 03:17:08;;;;;;;4.88;2.15;;;17.90;57.20;16.90;101158.00;;;;5020477;28;19917;-69
2022/01/02 03:19:54;;;;;;;4.85;1.92;;;17.90;57.10;16.90;101141.00;;;;5018371;28;20406;-69
2022/01/02 03:22:40;;;;;;;4.00;2.17;;;17.90;57.10;16.90;101124.00;;;;5021394;28;20041;-70
2022/01/02 03:25:26;;;;;;;3.97;1.83;;;17.90;57.10;16.90;101127.00;;;;5017630;28;20052;-69
2022/01/02 03:28:12;;;;;;;4.25;2.05;;;17.90;57.20;16.90;101120.00;;;;5017619;28;20479;-70
2022/01/02 03:30:59;;;;;;;4.43;1.95;;;17.90;57.20;16.90;101118.00;;;;5017866;28;20466;-69
2022/01/02 03:33:45;;;;;;;4.43;2.25;;;17.90;57.20;16.90;101116.00;;;;5023129;28;20044;-69
2022/01/02 03:36:31;;;;;;;3.75;2.15;;;17.90;57.30;16.90;101110.00;;;;5017650;28;20071;-69
2022/01/02 03:39:17;;;;;;;5.20;1.65;;;17.90;57.30;16.90;101109.00;;;;5006636;28;20041;-70
2022/01/02 03:42:04;;;;;;;4.18;2.17;;;17.90;57.40;16.90;101114.00;;;;4993066;28;20045;-70
2022/01/02 03:44:50;;;;;;;4.72;1.90;;;17.90;57.30;16.90;101114.00;;;;5020307;28;20076;-69
2022/01/02 03:47:36;;;;;;;5.57;1.98;;;17.90;57.40;16.90;101113.00;;;;5014060;28;20041;-70
2022/01/02 03:50:23;;;;;;;4.13;2.00;;;17.90;57.40;16.90;101099.00;;;;5018305;28;20049;-69
2022/01/02 03:53:09;;;;;;;3.65;2.05;;;17.90;57.40;16.90;101090.00;;;;5019993;28;20041;-70
2022/01/02 03:55:55;;;;;;;4.03;1.73;;;17.90;57.50;16.90;101089.00;;;;5020280;28;20091;-70
2022/01/02 03:58:41;;;;;;;5.72;2.72;;;17.90;57.50;16.90;101081.00;;;;5010968;28;20045;-69
2022/01/02 04:01:27;;;;;;;2.78;1.83;;;17.90;57.50;16.90;101081.00;;;;5017612;28;20454;-69
2022/01/02 04:04:13;;;;;;;6.00;2.20;;;17.90;58.20;16.90;101058.00;;;;5021665;28;20160;-69
2022/01/02 04:07:00;;;;;;;4.18;1.98;;;17.90;57.50;16.90;101064.00;;;;4992192;28;20636;-70
2022/01/02 04:09:46;;;;;;;4.00;1.73;;;17.90;57.60;16.90;101057.00;;;;5022206;28;20048;-70
2022/01/02 04:12:33;;;;;;;3.63;1.98;;;17.90;57.60;16.90;101038.00;;;;5002946;28;20041;-69
2022/01/02 04:15:19;;;;;;;5.78;1.95;;;17.90;57.70;16.90;101042.00;;;;5015996;28;20038;-69
2022/01/02 04:18:05;;;;;;;4.57;2.05;;;17.90;57.70;16.90;101038.00;;;;5019634;28;20540;-69
2022/01/02 04:20:51;;;;;;;5.82;1.85;;;17.90;57.70;16.90;101037.00;;;;5021767;28;20120;-70
2022/01/02 04:23:38;;;;;;;3.72;1.80;;;17.90;57.80;16.90;101050.00;;;;5015636;28;20444;-69
2022/01/02 04:26:24;;;;;;;3.60;1.77;;;17.90;57.90;16.90;101043.00;;;;5022137;28;20471;-70
2022/01/02 04:29:10;;;;;;;4.60;2.38;;;17.90;57.90;16.90;101040.00;;;;5017210;28;20042;-70
2022/01/02 04:31:56;;;;;;;5.93;2.17;;;17.90;57.90;16.90;101036.00;;;;5006995;28;20106;-70
2022/01/02 04:34:42;;;;;;;4.38;2.03;;;17.90;57.90;16.90;101037.00;;;;5005103;28;20103;-70
2022/01/02 04:37:29;;;;;;;4.97;2.28;;;17.90;58.00;16.90;101029.00;;;;5004535;28;20092;-69
2022/01/02 04:40:15;;;;;;;6.50;2.30;;;17.90;58.00;16.90;101022.00;;;;4990857;28;20415;-69
2022/01/02 04:43:01;;;;;;;3.38;1.70;;;17.90;58.00;16.90;101021.00;;;;5013885;28;20057;-69
2022/01/02 04:45:47;;;;;;;5.93;2.15;;;17.90;58.10;16.90;101035.00;;;;5023629;28;20038;-69
2022/01/02 04:48:34;;;;;;;4.90;2.25;;;17.90;58.10;16.90;101028.00;;;;5021383;28;20383;-69
2022/01/02 04:51:20;;;;;;;5.05;2.20;;;17.90;58.20;16.90;101026.00;;;;5018759;28;20403;-69
2022/01/02 04:54:06;;;;;;;4.70;1.83;;;17.90;58.80;16.90;101022.00;;;;5020044;28;20046;-69
2022/01/02 04:56:52;;;;;;;4.30;1.70;;;17.90;58.20;16.90;101024.00;;;;5002130;28;20091;-69
2022/01/02 04:59:38;;;;;;;5.70;1.90;;;17.90;58.20;16.90;101019.00;;;;4997444;28;20400;-69
2022/01/02 05:02:24;;;;;;;7.65;2.53;;;17.90;58.20;16.90;101022.00;;;;5022621;28;20037;-69
2022/01/02 05:05:11;;;;;;;5.15;2.08;;;17.90;58.20;16.90;101012.00;;;;5004155;28;20654;-69
2022/01/02 05:07:57;;;;;;;3.78;1.95;;;17.90;58.30;16.90;101008.00;;;;5017765;28;20041;-70
2022/01/02 05:10:43;;;;;;;5.07;1.98;;;17.90;58.20;16.90;101014.00;;;;5018418;28;20037;-69
2022/01/02 05:13:29;;;;;;;4.13;1.42;;;17.90;58.30;16.90;101006.00;;;;5018732;28;20068;-69
2022/01/02 05:16:15;;;;;;;4.80;1.90;;;17.90;58.30;16.90;101007.00;;;;5005757;28;20041;-70
2022/01/02 05:19:01;;;;;;;3.50;1.75;;;17.90;58.30;16.90;100988.00;;;;5018041;28;20052;-70
2022/01/02 05:21:48;;;;;;;6.95;2.65;;;17.90;58.30;16.90;101001.00;;;;5016451;28;20044;-70
2022/01/02 05:24:34;;;;;;;6.75;2.10;;;17.90;58.40;16.90;101018.00;;;;5020161;28;20104;-70
2022/01/02 05:27:20;;;;;;;5.85;2.00;;;17.90;58.30;16.90;101013.00;;;;4998803;28;20045;-70
2022/01/02 05:30:07;;;;;;;5.10;1.80;;;17.90;58.40;16.90;101010.00;;;;5007143;28;20049;-69
2022/01/02 05:32:53;;;;;;;4.80;2.10;;;17.90;58.40;16.90;101019.00;;;;5009101;28;20084;-69
2022/01/02 05:35:39;;;;;;;5.65;1.88;;;17.90;58.40;16.90;101019.00;;;;5023105;28;20155;-70
2022/01/02 05:38:25;;;;;;;5.68;2.40;;;17.90;58.40;16.90;101019.00;;;;5003276;28;20402;-69
2022/01/02 05:41:12;;;;;;;9.27;2.60;;;17.90;58.50;16.90;101016.00;;;;5015812;28;20157;-70
2022/01/02 05:43:58;;;;;;;6.30;1.75;;;17.90;58.50;16.90;101012.00;;;;5012174;28;20041;-69
2022/01/02 05:46:44;;;;;;;4.18;1.92;;;17.90;58.60;16.90;101006.00;;;;5006363;28;20037;-70
2022/01/02 05:49:31;;;;;;;4.60;2.05;;;17.90;58.50;16.90;101004.00;;;;5017761;28;20049;-69
2022/01/02 05:52:17;;;;;;;4.65;1.80;;;17.90;58.50;16.90;100997.00;;;;5021987;28;20394;-69
2022/01/02 05:55:04;;;;;;;4.13;2.22;;;17.90;58.50;16.90;101015.00;;;;5009826;28;20108;-69
2022/01/02 05:57:50;;;;;;;3.80;2.28;;;18.00;58.60;16.90;101007.00;;;;5020178;28;20108;-69
2022/01/02 06:00:36;;;;;;;4.32;2.33;;;17.90;58.60;16.90;100995.00;;;;5004429;28;20087;-70
2022/01/02 06:03:22;;;;;;;7.95;1.90;;;17.90;58.60;16.90;100992.00;;;;5023523;28;20395;-69
2022/01/02 06:06:08;;;;;;;5.47;2.13;;;17.90;58.60;16.90;100995.00;;;;5024958;28;20061;-69
2022/01/02 06:08:54;;;;;;;7.93;2.88;;;18.00;58.60;16.90;100990.00;;;;5018157;28;20056;-70
2022/01/02 06:11:40;;;;;;;7.35;2.70;;;17.90;58.60;16.90;100998.00;;;;5008862;28;20039;-69
2022/01/02 06:14:27;;;;;;;4.55;2.05;;;17.90;58.60;16.90;100990.00;;;;5025405;28;20128;-70
2022/01/02 06:17:13;;;;;;;4.03;2.13;;;17.90;58.60;16.90;100993.00;;;;5004896;28;20041;-70
2022/01/02 06:19:59;;;;;;;5.82;2.20;;;17.90;58.60;16.90;100991.00;;;;5020762;28;20475;-69
2022/01/02 06:22:45;;;;;;;8.90;2.83;;;17.90;58.60;16.90;100984.00;;;;5023186;28;20044;-70
2022/01/02 06:25:32;;;;;;;5.80;2.53;;;18.00;58.70;16.90;100973.00;;;;5022525;28;20040;-69
2022/01/02 06:28:18;;;;;;;6.40;2.23;;;17.90;58.70;16.90;100958.00;;;;5016514;28;20042;-70
2022/01/02 06:31:05;;;;;;;6.47;2.53;;;17.90;58.60;16.90;100945.00;;;;5004688;28;20038;-70
2022/01/02 06:33:51;;;;;;;6.63;2.25;;;17.90;58.60;16.90;100926.00;;;;5021262;28;20047;-69
2022/01/02 06:36:37;;;;;;;4.70;1.80;;;17.90;58.70;16.90;100922.00;;;;5009992;28;20445;-70
2022/01/02 06:39:23;;;;;;;4.72;2.00;;;17.90;58.70;16.90;100924.00;;;;5015348;28;20068;-70
2022/01/02 06:42:09;;;;;;;6.90;2.55;;;17.90;58.60;16.90;100928.00;;;;5021449;28;20049;-69
2022/01/02 06:44:55;;;;;;;4.60;1.88;;;17.90;58.70;16.90;100928.00;;;;5021066;28;20074;-70
2022/01/02 06:47:42;;;;;;;2.72;1.92;;;17.90;58.70;16.90;100913.00;;;;5021675;28;20046;-69
2022/01/02 06:50:28;;;;;;;5.40;2.20;;;17.90;58.70;16.90;100910.00;;;;4999440;28;20044;-69
2022/01/02 06:53:14;;;;;;;5.35;2.03;;;18.10;58.80;16.90;100896.00;;;;5020204;28;20422;-69
2022/01/02 06:56:00;;;;;;;6.65;2.33;;;17.90;58.70;16.90;100893.00;;;;4992449;28;20120;-69
2022/01/02 06:58:46;;;;;;;6.18;2.22;;;17.90;58.70;16.90;100897.00;;;;5018774;28;20043;-69
2022/01/02 07:01:33;;;;;;;6.50;2.05;;;17.90;58.70;16.90;100886.00;;;;5022218;28;20040;-69
2022/01/02 07:04:20;;;;;;;5.03;2.03;;;17.90;58.80;16.90;100891.00;;;;5005839;28;20056;-70
2022/01/02 07:07:06;;;;;;;4.75;2.42;;;17.90;58.70;16.90;100875.00;;;;5020484;28;20045;-69
2022/01/02 07:09:52;;;;;;;4.63;2.28;;;17.90;58.70;16.90;100876.00;;;;5020036;28;20407;-69
2022/01/02 07:12:39;;;;;;;5.10;2.35;;;17.90;58.70;16.90;100872.00;;;;5018660;28;20175;-69
2022/01/02 07:15:25;;;;;;;8.82;2.45;;;17.90;58.70;16.90;100865.00;;;;5008821;28;20041;-70
2022/01/02 07:18:11;;;;;;;9.95;2.88;;;17.90;58.70;16.90;100862.00;;;;5024083;28;20143;-69
2022/01/02 07:20:57;;;;;;;6.68;2.50;;;17.90;58.70;16.90;100852.00;;;;5018153;28;20041;-70
2022/01/02 07:23:44;;;;;;;6.40;2.30;;;17.90;58.70;16.90;100843.00;;;;5001276;28;20041;-69
2022/01/02 07:26:30;;;;;;;6.07;2.03;;;17.90;58.70;16.90;100830.00;;;;5019413;28;20499;-69
2022/01/02 07:29:17;;;;;;;4.88;1.80;;;17.90;58.80;16.90;100813.00;;;;5019117;28;20056;-70
2022/01/02 07:32:03;;;;;;;6.20;2.00;;;17.90;58.70;16.90;100817.00;;;;5024359;28;20045;-70
2022/01/02 07:34:52;;;;;;;4.28;1.90;;;17.90;58.70;16.90;100808.00;;;;5013427;28;20463;-69
2022/01/02 07:37:39;;;;;;;3.67;2.13;;;18.00;58.80;16.90;100800.00;;;;4993491;28;20048;-69
2022/01/02 07:40:25;;;;;;;4.47;2.10;;;18.00;58.80;16.90;100786.00;;;;5020073;28;20037;-69
2022/01/02 07:43:11;;;;;;;6.38;2.03;;;17.90;58.80;16.90;100775.00;;;;4986472;28;20038;-69
2022/01/02 07:45:58;;;;;;;4.03;2.10;;;18.20;58.90;16.90;100775.00;;;;5017082;28;20054;-69
2022/01/02 07:48:44;;;;;;;4.32;2.10;;;17.90;58.70;16.90;100754.00;;;;5013773;28;20596;-69
2022/01/02 07:51:31;;;;;;;4.03;2.10;;;17.90;58.70;16.90;100744.00;;;;5014732;28;20042;-70
2022/01/02 07:54:17;;;;;;;6.13;2.50;;;17.90;58.80;16.90;100745.00;;;;5018800;28;20119;-69
2022/01/02 07:57:04;;;;;;;9.00;2.58;;;17.90;58.70;16.90;100747.00;;;;5017697;28;20037;-69
2022/01/02 07:59:50;;;;;;;7.75;2.90;;;17.90;58.80;16.90;100730.00;;;;4987201;28;20116;-70
2022/01/02 08:02:36;;;;;;;5.25;2.10;;;17.90;58.70;16.90;100716.00;;;;5000784;28;20045;-69
2022/01/02 08:05:23;;;;;;;6.22;2.33;;;17.90;58.70;16.90;100714.00;;;;5014439;28;20045;-69
2022/01/02 08:08:09;;;;;;;6.50;3.00;;;17.90;58.70;16.90;100707.00;;;;5000826;28;20132;-69
2022/01/02 08:10:55;;;;;;;7.40;2.63;;;17.90;58.70;16.90;100690.00;;;;5016415;28;20107;-69
2022/01/02 08:13:42;;;;;;;6.03;2.63;;;17.90;58.70;16.90;100683.00;;;;5003241;28;20073;-70
2022/01/02 08:16:28;;;;;;;7.20;2.50;;;17.90;58.70;16.90;100680.00;;;;5013159;28;20144;-70
2022/01/02 08:19:15;;;;;;;5.90;2.95;;;17.90;58.70;16.90;100670.00;;;;5018865;28;20288;-69
2022/01/02 08:22:01;;;;;;;4.95;2.40;;;18.00;58.80;16.90;100673.00;;;;5008947;28;20084;-69
2022/01/02 08:24:50;;;;;;;7.10;2.90;;;18.00;58.80;16.90;100691.00;;;;5020510;28;20033;-70
2022/01/02 08:27:36;;;;;;;3.05;1.88;;;17.90;58.70;16.90;100678.00;;;;5008729;28;20057;-69
2022/01/02 08:30:22;;;;;;;4.90;2.67;;;18.00;58.80;16.90;100677.00;;;;5021929;28;20103;-70
2022/01/02 08:33:09;;;;;;;7.75;2.63;;;17.90;58.70;16.90;100671.00;;;;5016402;28;20084;-69
2022/01/02 08:35:55;;;;;;;10.90;3.10;;;17.90;58.70;16.90;100652.00;;;;5013932;28;20045;-70
2022/01/02 08:38:41;;;;;;;7.38;2.83;;;18.00;58.80;17.00;100654.00;;;;5002894;28;20533;-69
2022/01/02 08:41:28;;;;;;;5.63;2.72;;;17.90;58.70;17.00;100653.00;;;;5004557;28;20075;-69
2022/01/02 08:44:14;;;;;;;5.40;2.40;;;18.00;58.80;17.00;100633.00;;;;5003265;28;20038;-69
2022/01/02 08:47:00;;;;;;;6.32;2.53;;;18.00;58.80;17.00;100635.00;;;;4997625;28;20049;-69
2022/01/02 08:49:46;;;;;;;5.38;2.63;;;17.90;58.70;16.90;100624.00;;;;5013978;28;20488;-70
2022/01/02 08:52:32;;;;;;;5.13;2.60;;;18.00;58.80;17.00;100611.00;;;;5020596;28;20076;-70
2022/01/02 08:55:19;;;;;;;7.47;3.00;;;17.90;58.70;17.00;100612.00;;;;5022595;28;20530;-69
2022/01/02 08:58:05;;;;;;;7.70;2.83;;;17.90;58.70;16.90;100592.00;;;;4989586;28;20085;-69
2022/01/02 09:00:51;;;;;;;4.80;2.05;;;18.00;58.70;17.00;100591.00;;;;5023556;28;20076;-70
2022/01/02 09:03:37;;;;;;;5.45;2.53;;;18.00;58.70;17.00;100595.00;;;;5015343;28;20088;-70
2022/01/02 09:06:23;;;;;;;5.35;2.38;;;18.00;58.70;17.00;100619.00;;;;5015795;28;20339;-69
2022/01/02 09:09:10;;;;;;;7.95;2.85;;;18.00;58.70;17.00;100639.00;;;;5014030;28;20423;-69
2022/01/02 09:11:56;;;;;;;4.57;1.85;;;18.00;58.70;17.00;100648.00;;;;5000071;28;20054;-70
2022/01/02 09:14:42;;;;;;;4.65;2.13;;;18.00;58.70;17.00;100682.00;;;;5009599;28;20128;-70
2022/01/02 09:17:28;;;;;;;7.70;2.38;;;17.90;58.60;17.00;100675.00;;;;4982285;28;22447;-70
2022/01/02 09:20:17;;;;;;;5.35;2.00;;;18.00;58.70;17.00;100723.00;;;;5019987;28;20063;-70
2022/01/02 09:23:03;;;;;;;4.45;2.20;;;18.00;58.60;17.00;100714.00;;;;5017182;28;20141;-70
2022/01/02 09:25:49;;;;;;;5.90;1.95;;;18.00;58.70;17.00;100722.00;;;;5011314;28;20053;-72
2022/01/02 09:28:35;;;;;;;7.55;2.25;;;18.00;58.60;16.90;100713.00;;;;5009526;28;22511;-71
2022/01/02 09:31:22;;;;;;;6.10;1.85;;;17.90;58.60;16.90;100706.00;;;;4984028;28;20128;-70
2022/01/02 09:34:08;;;;;;;5.07;2.05;;;17.90;58.60;16.90;100699.00;;;;5002549;28;20120;-70
2022/01/02 09:36:54;;;;;;;4.55;2.10;;;17.90;58.50;16.90;100693.00;;;;5022412;28;20234;-70
2022/01/02 09:39:42;;;;;;;7.63;1.80;;;17.90;58.60;16.90;100686.00;;;;5014591;28;20037;-70
2022/01/02 09:42:28;;;;;;;5.90;2.15;;;17.90;58.60;16.90;100667.00;;;;5002599;28;20049;-72
2022/01/02 09:45:14;;;;;;;4.82;1.98;;;18.00;58.70;16.90;100662.00;;;;5011428;28;20128;-70
2022/01/02 09:48:00;;;;;;;4.05;1.85;;;18.00;58.60;17.00;100651.00;;;;5007480;28;20473;-70
2022/01/02 09:50:47;;;;;;;6.57;1.90;;;17.90;58.60;16.90;100656.00;;;;5003667;28;20487;-70
2022/01/02 09:53:33;;;;;;;4.68;2.05;;;18.00;58.70;16.90;100628.00;;;;5013574;28;20507;-70
2022/01/02 09:56:19;;;;;;;4.35;1.77;;;18.00;58.60;16.90;100580.00;;;;5012962;28;20029;-70
2022/01/02 09:59:05;;;;;;;4.72;1.90;;;18.00;58.60;16.90;100568.00;;;;5004507;28;20080;-70
2022/01/02 10:01:51;;;;;;;6.28;2.25;;;18.00;58.60;17.00;100597.00;;;;5014797;28;20473;-69
2022/01/02 10:04:42;;;;;;;11.15;2.10;;;17.90;58.60;17.00;100610.00;;;;5011917;28;20160;-70
2022/01/02 10:07:31;;;;;;;7.72;2.65;;;18.00;58.70;17.00;100613.00;;;;4987449;28;20119;-70
2022/01/02 10:10:18;;;;;;;8.50;2.25;;;17.90;58.70;16.90;100614.00;;;;4997430;28;20034;-70
2022/01/02 10:13:04;;;;;;;8.13;2.03;;;17.90;58.70;16.90;100603.00;;;;4989261;28;20099;-70
2022/01/02 10:15:50;;;;;;;4.03;1.73;;;17.90;58.70;17.00;100601.00;;;;5013516;28;20180;-70
2022/01/02 10:18:36;;;;;;;6.32;1.70;;;17.90;58.70;16.90;100586.00;;;;5014158;28;20123;-69
2022/01/02 10:21:37;;;;;;;6.75;2.38;;;17.90;58.70;16.90;100588.00;;;;5015369;28;20048;-69
2022/01/02 10:24:27;;;;;;;3.83;2.78;;;17.90;58.80;16.90;100592.00;;;;5000014;28;20052;-69
2022/01/02 10:27:18;;;;;;;5.25;1.90;;;17.90;58.70;16.90;100578.00;;;;5009437;28;20060;-69
2022/01/02 10:30:05;;;;;;;4.65;1.83;;;17.90;58.70;16.90;100580.00;;;;4992577;28;21049;-69
2022/01/02 10:32:52;;;;;;;4.53;1.70;;;18.00;58.70;16.90;100578.00;;;;5017537;28;20042;-69
2022/01/02 10:35:38;;;;;;;4.35;1.77;;;17.90;58.60;16.90;100573.00;;;;5001159;28;20648;-69
2022/01/02 10:38:24;;;;;;;6.72;2.15;;;17.90;58.60;16.90;100565.00;;;;5021019;28;20030;-69
2022/01/02 10:41:11;;;;;;;4.32;1.80;;;17.90;58.50;16.90;100558.00;;;;5003207;28;20502;-69
2022/01/02 10:43:58;;;;;;;2.88;1.88;;;17.90;58.30;16.90;100559.00;;;;5005402;28;20045;-68
2022/01/02 10:47:21;;;;;;;4.47;2.08;;;17.90;58.10;16.90;100563.00;;;;4992471;28;20112;-68
2022/01/02 10:50:16;;;;;;;3.88;1.67;;;17.90;58.10;16.90;100555.00;;;;5004385;28;20113;-68
2022/01/02 10:53:16;;;;;;;3.35;2.17;;;17.90;57.80;16.90;100556.00;;;;5020387;28;20041;-68
2022/01/02 10:56:05;;;;;;;4.00;1.90;;;17.90;57.60;16.80;100551.00;;;;4986193;28;20043;-68
2022/01/02 10:58:51;;;;;;;4.63;1.73;;;17.90;57.50;16.80;100543.00;;;;5003187;28;20053;-68
2022/01/02 11:01:38;;;;;;;3.70;1.80;;;17.80;57.70;16.80;100563.00;;;;5000857;28;20080;-69
2022/01/02 11:04:30;;;;;;;3.95;1.70;;;17.80;57.50;16.80;100564.00;;;;5008551;28;20557;-68
2022/01/02 11:07:21;;;;;;;3.08;2.10;;;17.80;57.70;16.80;100558.00;;;;5000999;28;20144;-68
2022/01/02 11:10:12;;;;;;;2.90;1.90;;;17.80;57.40;16.80;100561.00;;;;5001394;28;20044;-68
2022/01/02 11:12:58;;;;;;;4.30;2.03;;;17.80;57.40;16.80;100560.00;;;;4995708;28;20092;-68
2022/01/02 11:15:46;;;;;;;4.72;2.22;;;17.80;57.40;16.80;100564.00;;;;4981360;28;20586;-68
2022/01/02 11:18:33;;;;;;;2.55;2.08;;;17.80;57.30;16.80;100559.00;;;;5013262;28;20373;-68
2022/01/02 11:21:20;;;;;;;4.03;1.98;;;17.80;57.30;16.80;100553.00;;;;5009691;28;20116;-67
2022/01/02 11:24:12;;;;;;;5.00;2.17;;;17.80;58.00;16.80;100563.00;;;;4979424;28;20495;-68
2022/01/02 11:27:12;;;;;;;5.22;1.92;;;17.80;57.30;16.80;100569.00;;;;5000965;28;20046;-67
2022/01/02 11:29:58;;;;;;;4.10;2.22;;;17.80;57.30;16.80;100570.00;;;;5000764;28;20033;-68
2022/01/02 11:32:44;;;;;;;5.95;2.60;;;17.70;57.30;16.80;100570.00;;;;5016033;28;20113;-68
2022/01/02 11:35:31;;;;;;;3.83;2.10;;;17.70;58.00;16.80;100562.00;;;;4964424;28;20052;-67
2022/01/02 11:38:19;;;;;;;3.33;1.90;;;17.70;57.30;16.80;100557.00;;;;4986553;28;20045;-68
2022/01/02 11:41:05;;;;;;;;;;;17.70;57.20;16.80;100560.00;;;;5008344;28;20144;-68
2022/01/02 11:43:53;;;;;;;5.18;2.20;;;17.70;57.60;16.80;100552.00;;;;5000535;28;20517;-68
2022/01/02 11:47:08;;;;;;;5.45;2.08;;;17.70;57.20;16.80;100568.00;;;;4999279;28;20037;-68
2022/01/02 11:49:54;;;;;;;5.97;2.60;;;17.70;57.20;16.80;100565.00;;;;4988184;28;20038;-68
2022/01/02 11:52:41;;;;;;;2.83;1.90;;;17.70;57.40;16.80;100555.00;;;;5015128;28;20046;-68
2022/01/02 11:55:27;;;;;;;4.30;1.60;;;17.70;57.20;16.80;100569.00;;;;5015655;28;20044;-68
2022/01/02 11:58:14;;;;;;;5.10;1.88;;;17.70;57.20;16.80;100552.00;;;;4980948;28;20410;-68
2022/01/02 12:01:00;;;;;;;3.80;2.10;;;17.70;57.20;16.80;100543.00;;;;5003003;28;20042;-67
2022/01/02 12:03:46;;;;;;;3.38;1.90;;;17.70;57.20;16.80;100545.00;;;;5008393;28;20514;-69
2022/01/02 12:06:34;;;;;;;2.70;1.85;;;17.70;57.20;16.80;100552.00;;;;5005483;28;20119;-69
2022/01/02 12:09:36;;;;;;;2.58;1.63;;;17.70;57.20;16.80;100555.00;;;;5017488;28;20453;-73
2022/01/02 12:12:22;;;;;;;3.35;1.42;;;17.70;57.10;16.80;100554.00;;;;4972422;28;20403;-74
2022/01/02 12:15:08;;;;;;;6.45;2.00;;;17.70;57.00;16.80;100544.00;;;;5019077;28;20132;-69
2022/01/02 12:18:26;;;;;;;3.40;1.45;;;17.70;57.00;16.80;100556.00;;;;5009462;28;20042;-69
2022/01/02 12:21:14;;;;;;;4.20;1.92;;;17.70;57.00;16.80;100548.00;;;;5014388;28;20222;-69